This is the latest recevied weather packets stored in our database for station/object XE2KK-10. If no packets are shown the sender has not sent any weather packets the latest 10 day(s).
| Time | Temp. | Humidity | Pressure | Rain* | Wind** | Luminosity | Snow |
|---|---|---|---|---|---|---|---|
| 1778086753 | 33.33° C | 48% | 1010.2 hPa | 0 mm | - | 828 W/m² | - |
| 1778086453 | 32.78° C | 49% | 1010.4 hPa | 0 mm | - | 810 W/m² | - |
| 1778086152 | 32.22° C | 52% | 1010.5 hPa | 0 mm | - | 854 W/m² | - |
| 1778085852 | 31.67° C | 55% | 1010.2 hPa | 0 mm | - | 837 W/m² | - |
| 1778085553 | 31.11° C | 54% | 1010.4 hPa | 0 mm | - | 865 W/m² | - |
| 1778085253 | 31.67° C | 55% | 1010.6 hPa | 0 mm | - | 828 W/m² | - |
| 1778084953 | 31.11° C | 56% | 1010.5 hPa | 0 mm | - | 818 W/m² | - |
| 1778084653 | 31.11° C | 57% | 1010.7 hPa | 0 mm | - | 874 W/m² | - |
| 1778084352 | 30.56° C | 59% | 1010.6 hPa | 0 mm | - | 855 W/m² | - |
| 1778084052 | 31.11° C | 58% | 1010.6 hPa | 0 mm | - | 761 W/m² | - |
| 1778083753 | 30.56° C | 59% | 1010.4 hPa | 0 mm | - | 773 W/m² | - |
| 1778083453 | 30.56° C | 60% | 1010.7 hPa | 0 mm | - | 657 W/m² | - |
| 1778083153 | 31.11° C | 59% | 1010.7 hPa | 0 mm | - | 740 W/m² | - |
| 1778082853 | 30° C | 61% | 1010.7 hPa | 0 mm | - | 703 W/m² | - |
| 1778082552 | 29.44° C | 63% | 1010.6 hPa | 0 mm | - | 665 W/m² | - |
| 1778082252 | 29.44° C | 63% | 1010.5 hPa | 0 mm | - | 700 W/m² | - |
| 1778081953 | 28.89° C | 65% | 1010.5 hPa | 0 mm | - | 691 W/m² | - |
| 1778081653 | 28.89° C | 65% | 1010.4 hPa | 0 mm | - | 493 W/m² | - |
| 1778081353 | 28.89° C | 66% | 1010.4 hPa | 0 mm | - | 634 W/m² | - |
| 1778081053 | 28.33° C | 68% | 1010.6 hPa | 0 mm | - | 600 W/m² | - |
| 1778080752 | 27.78° C | 70% | 1010.4 hPa | 0 mm | - | 416 W/m² | - |
| 1778080452 | 28.33° C | 69% | 1010.3 hPa | 0 mm | - | 266 W/m² | - |
| 1778080153 | 27.78° C | 71% | 1010.6 hPa | 0 mm | - | 352 W/m² | - |
| 1778079853 | 28.33° C | 69% | 1010.6 hPa | 0 mm | - | 490 W/m² | - |
| 1778079553 | 27.78° C | 71% | 1010.3 hPa | 0 mm | - | 511 W/m² | - |
* Rain latest hour (hover to see other rain measurements)
** Current wind speed in m/s (hover to see current wind gust speed)